Historique des stations

Station météo de Chailles

Altitude de la station : 86 m







Données météorologiques pour le 18/05/2021
Date
Heure
Températures Humidité Point de rosée Vitesse
du vent
Direction Rafales Windchill Pression Pluviométrie
Cumul
Date
Heure
Températures Humidité Point de rosée Vitesse
du vent
Direction Rafales Windchill Pression Pluviométrie
Cumul
18/05/2021 11:5312.5 °C82 %9.5 °C5 km/hOSO11 km/h12.51018 hPa0.2 mm
18/05/2021 11:3812.1 °C83 %9.3 °C3 km/hOSO8 km/h12.11018 hPa0.2 mm
18/05/2021 11:2311.9 °C83 %9.1 °C5 km/hONO10 km/h11.91018 hPa0.2 mm
18/05/2021 11:0811.7 °C83 %8.9 °C5 km/hSO10 km/h11.71018 hPa0.2 mm
18/05/2021 10:5311.5 °C85 %9.1 °C8 km/hSO11 km/h10.81018 hPa0.2 mm
18/05/2021 10:3810.8 °C88 %8.9 °C6 km/hOSO11 km/h10.31018 hPa0.2 mm
18/05/2021 10:2310.8 °C88 %8.9 °C5 km/hO11 km/h10.71018 hPa0.2 mm
18/05/2021 10:0810.5 °C90 %8.9 °C5 km/hOSO10 km/h10.41018 hPa0.2 mm
18/05/2021 09:5310.1 °C90 %8.5 °C5 km/hSO8 km/h9.91018 hPa0.2 mm
18/05/2021 09:389.8 °C91 %8.4 °C5 km/hOSO10 km/h9.61018 hPa0.2 mm
18/05/2021 09:239.7 °C92 %8.5 °C6 km/hOSO10 km/h9.11018 hPa0.2 mm
18/05/2021 09:089.4 °C92 %8.2 °C8 km/hO13 km/h8.31018 hPa0.2 mm
18/05/2021 08:539.4 °C93 %8.3 °C6 km/hO13 km/h8.71018 hPa0.2 mm
18/05/2021 08:389.2 °C93 %8.1 °C5 km/hSO8 km/h8.91018 hPa0.2 mm
18/05/2021 08:238.9 °C93 %7.9 °C5 km/hOSO8 km/h8.61018 hPa0.2 mm
18/05/2021 08:088.8 °C94 %7.9 °C6 km/hSO10 km/h8.01018 hPa0.2 mm
18/05/2021 07:538.6 °C94 %7.6 °C5 km/hOSO11 km/h8.21018 hPa0.2 mm
18/05/2021 07:388.2 °C94 %7.3 °C3 km/hSSO8 km/h8.21018 hPa0.2 mm
18/05/2021 07:238.1 °C94 %7.1 °C3 km/hSSO6 km/h8.11018 hPa0.2 mm
18/05/2021 07:087.8 °C94 %6.9 °C3 km/hSSO6 km/h7.81018 hPa0.2 mm
18/05/2021 06:537.7 °C94 %6.8 °C3 km/hSSO6 km/h7.71018 hPa0.2 mm
18/05/2021 06:387.6 °C94 %6.7 °C3 km/hSSO5 km/h7.61018 hPa0.2 mm
18/05/2021 06:237.6 °C93 %6.5 °C3 km/hSSO6 km/h7.61018 hPa0.2 mm
18/05/2021 06:087.6 °C93 %6.5 °C5 km/hSSO10 km/h7.11018 hPa0.2 mm
18/05/2021 05:537.5 °C93 %6.4 °C3 km/hSO10 km/h7.51017 hPa0.2 mm
18/05/2021 05:387.4 °C93 %6.4 °C3 km/hS10 km/h7.41017 hPa0.2 mm
18/05/2021 05:237.4 °C93 %6.4 °C3 km/hS8 km/h7.41018 hPa0.2 mm
18/05/2021 05:087.6 °C93 %6.5 °C5 km/hSSO11 km/h7.11018 hPa0.2 mm
18/05/2021 04:537.6 °C93 %6.5 °C3 km/hSO8 km/h7.61018 hPa0.0 mm
18/05/2021 04:387.4 °C93 %6.4 °C3 km/hOSO10 km/h7.41018 hPa0.0 mm
18/05/2021 04:237.4 °C93 %6.3 °C3 km/hSO6 km/h7.41017 hPa0.0 mm
18/05/2021 04:087.4 °C93 %6.4 °C3 km/hSO6 km/h7.41017 hPa0.0 mm
18/05/2021 03:537.6 °C92 %6.4 °C3 km/hSO5 km/h7.61017 hPa0.0 mm
18/05/2021 03:387.7 °C92 %6.5 °C5 km/hSO6 km/h7.31017 hPa0.0 mm
18/05/2021 03:237.8 °C92 %6.6 °C5 km/hSO8 km/h7.41018 hPa0.0 mm
18/05/2021 03:088.1 °C91 %6.7 °C5 km/hOSO11 km/h7.71018 hPa0.0 mm
18/05/2021 02:538.1 °C91 %6.7 °C5 km/hSO8 km/h7.71018 hPa0.0 mm
18/05/2021 02:388.3 °C91 %6.9 °C5 km/hSO8 km/h7.91018 hPa0.0 mm
18/05/2021 02:238.6 °C90 %7.1 °C5 km/hSSO11 km/h8.21018 hPa0.0 mm
18/05/2021 02:088.9 °C91 %7.6 °C5 km/hSSO10 km/h8.61018 hPa0.0 mm
18/05/2021 01:539.1 °C92 %7.9 °C6 km/hSO11 km/h8.31017 hPa0.0 mm
18/05/2021 01:389.2 °C92 %7.9 °C6 km/hSSO10 km/h8.41018 hPa0.0 mm
18/05/2021 01:239.3 °C91 %7.9 °C3 km/hS6 km/h9.31018 hPa0.0 mm
18/05/2021 01:089.4 °C91 %8.0 °C2 km/hNNO5 km/h9.41018 hPa0.0 mm
18/05/2021 00:539.5 °C91 %8.1 °C2 km/hNNO5 km/h9.51018 hPa0.0 mm
18/05/2021 00:389.6 °C91 %8.2 °C3 km/hNNO6 km/h9.61018 hPa0.0 mm
18/05/2021 00:239.6 °C90 %8.1 °C-OSO2 km/h9.61018 hPa0.0 mm
18/05/2021 00:089.8 °C90 %8.2 °C3 km/h--9.81018 hPa0.0 mm


Minima :

Température : 7.4 °C
Humidité : 82 %
Point de rosée : 6.3 °C
Vent moyen : 2 km/h
Windchill : 7.1
Pression atm. : 1017 hPa
Maxima :

Température : 12.5 °C
Humidité : 94 %
Point de rosée : 9.5 °C
Vent moyen : 8 km/h
Windchill : 12.5
Pression atm. : 1018 hPa
Rafales max : 13 km/h
Cumul de pluie sur 24H : 0.2 mm

Chailles est une commune du département Loir-et-Cher (41).
La station météorologique du réseau de l'association la plus proche de Chailles est celle de Tour-en-Sologne
Site du propriétaire de la station : http://jmj41.com/meteo/



Icône Facebook Association Météo Centre Icône Twitter Association Météo Centre Icône Chaîne Youtube Association Météo Centre Icône contact Association Météo Centre Icône Insta Association Météo Centre